createdAt,value
2018-06-03T00:02:10.291Z,70.91
2018-06-03T00:04:37.805Z,70.84
2018-06-03T00:07:05.321Z,70.72
2018-06-03T00:09:32.859Z,71.09
2018-06-03T00:12:00.535Z,71.35
2018-06-03T00:14:28.043Z,71.97
2018-06-03T00:16:55.882Z,72.03
2018-06-03T00:19:23.403Z,71.96
2018-06-03T00:21:50.927Z,72.58
2018-06-03T00:24:18.475Z,72.48
2018-06-03T00:26:45.977Z,72.26
2018-06-03T00:29:13.538Z,72.36
2018-06-03T00:31:41.160Z,72.39
2018-06-03T00:34:08.668Z,72.75
2018-06-03T00:36:43.073Z,72.59
2018-06-03T00:39:10.632Z,72.35
2018-06-03T00:41:38.292Z,72.68
2018-06-03T00:44:05.825Z,72.67
2018-06-03T00:46:33.340Z,72.27
2018-06-03T00:49:00.876Z,72.40
2018-06-03T00:51:28.419Z,72.41
2018-06-03T00:53:55.928Z,72.19
2018-06-03T00:56:35.493Z,72.16
2018-06-03T00:59:03.006Z,72.46
2018-06-03T01:01:30.575Z,72.96
2018-06-03T01:03:58.115Z,73.27
2018-06-03T01:06:25.621Z,73.28
2018-06-03T01:08:53.389Z,73.07
2018-06-03T01:11:20.973Z,73.44
2018-06-03T01:13:48.477Z,73.22
2018-06-03T01:16:15.996Z,73.20
2018-06-03T01:18:43.542Z,73.12
2018-06-03T01:21:11.120Z,73.15
2018-06-03T01:23:38.651Z,73.02
2018-06-03T01:26:06.225Z,72.97
2018-06-03T01:28:33.736Z,73.07
2018-06-03T01:31:01.315Z,73.18
2018-06-03T01:33:28.870Z,73.33
2018-06-03T01:35:56.388Z,73.52
2018-06-03T01:38:24.030Z,73.68
2018-06-03T01:40:51.863Z,73.78
2018-06-03T01:43:19.451Z,73.80
2018-06-03T01:46:15.378Z,74.81
2018-06-03T01:48:44.187Z,74.30
2018-06-03T01:51:12.799Z,75.37
2018-06-03T01:53:41.781Z,74.45
2018-06-03T01:56:11.760Z,74.97
2018-06-03T01:58:42.419Z,74.36
2018-06-03T02:01:16.577Z,75.15
2018-06-03T02:03:46.652Z,74.68
2018-06-03T02:06:15.953Z,74.16
2018-06-03T02:08:45.739Z,74.67
2018-06-03T02:11:15.479Z,74.67
2018-06-03T02:13:46.727Z,74.64
2018-06-03T02:16:16.958Z,75.04
2018-06-03T02:18:45.869Z,75.36
2018-06-03T02:21:15.549Z,75.07
2018-06-03T02:23:45.766Z,74.90
2018-06-03T02:26:17.646Z,74.88
2018-06-03T02:28:46.998Z,75.13
2018-06-03T02:31:18.231Z,75.22
2018-06-03T02:33:47.995Z,74.76
2018-06-03T02:36:18.287Z,75.42
2018-06-03T02:38:47.619Z,75.92
2018-06-03T02:41:17.237Z,75.79
2018-06-03T02:43:46.677Z,75.55
2018-06-03T02:46:17.749Z,75.66
2018-06-03T02:48:46.451Z,75.95
2018-06-03T02:51:15.868Z,75.57
2018-06-03T02:53:44.510Z,75.44
2018-06-03T02:56:15.047Z,75.58
2018-06-03T02:58:44.242Z,75.68
2018-06-03T03:01:13.313Z,75.37
2018-06-03T03:03:42.278Z,76.08
2018-06-03T03:06:11.324Z,75.57
2018-06-03T03:08:40.825Z,75.49
2018-06-03T03:11:10.234Z,75.05
2018-06-03T03:13:38.994Z,75.62
2018-06-03T03:16:07.952Z,75.39
2018-06-03T03:18:38.045Z,75.37
2018-06-03T03:21:06.956Z,75.25
2018-06-03T03:23:35.890Z,75.60
2018-06-03T03:26:05.222Z,76.08
2018-06-03T03:28:34.975Z,75.63
2018-06-03T03:31:03.656Z,75.46
2018-06-03T03:33:32.649Z,75.94
2018-06-03T03:36:02.033Z,75.27
2018-06-03T03:38:32.050Z,75.58
2018-06-03T03:41:01.506Z,74.87
2018-06-03T03:43:30.614Z,75.04
2018-06-03T03:46:00.256Z,75.51
2018-06-03T03:48:29.468Z,75.64
2018-06-03T03:50:58.475Z,75.41
2018-06-03T03:53:27.249Z,75.97
2018-06-03T03:55:56.263Z,76.14
2018-06-03T03:58:26.374Z,76.29
2018-06-03T04:00:55.373Z,76.80
2018-06-03T04:03:24.978Z,77.08
2018-06-03T04:05:54.505Z,77.19
2018-06-03T04:08:23.139Z,77.06
2018-06-03T04:10:52.846Z,76.63
2018-06-03T04:13:22.060Z,76.91
2018-06-03T04:15:51.802Z,76.68
2018-06-03T04:18:21.332Z,76.07
2018-06-03T04:20:51.498Z,76.12
2018-06-03T04:23:20.327Z,76.58
2018-06-03T04:25:51.379Z,77.76
2018-06-03T04:28:22.713Z,78.42
2018-06-03T04:30:52.264Z,77.50
2018-06-03T04:33:21.528Z,77.51
2018-06-03T04:35:50.821Z,77.37
2018-06-03T04:38:20.328Z,77.28
2018-06-03T04:40:50.540Z,76.98
2018-06-03T04:43:20.081Z,76.82
2018-06-03T04:45:48.696Z,77.57
2018-06-03T04:48:20.045Z,76.68
2018-06-03T04:50:49.399Z,77.58
2018-06-03T04:53:19.750Z,77.35
2018-06-03T04:55:50.663Z,77.15
2018-06-03T04:58:20.232Z,77.57
2018-06-03T05:00:49.550Z,78.34
2018-06-03T05:03:20.101Z,78.34
2018-06-03T05:05:49.708Z,78.04
2018-06-03T05:08:20.109Z,78.31
2018-06-03T05:10:49.860Z,78.60
2018-06-03T05:13:19.445Z,78.64
2018-06-03T05:15:49.831Z,78.43
2018-06-03T05:18:20.500Z,78.18
2018-06-03T05:20:50.039Z,78.34
2018-06-03T05:23:20.373Z,77.94
2018-06-03T05:25:51.268Z,78.51
2018-06-03T05:28:20.041Z,77.76
2018-06-03T05:30:49.871Z,78.40
2018-06-03T05:33:18.553Z,78.98
2018-06-03T05:35:47.865Z,78.15
2018-06-03T05:38:18.596Z,79.27
2018-06-03T05:40:47.856Z,79.24
2018-06-03T05:43:17.854Z,79.23
2018-06-03T05:45:47.015Z,79.54
2018-06-03T05:48:15.697Z,79.22
2018-06-03T05:50:44.872Z,79.26
2018-06-03T05:53:16.170Z,79.09
2018-06-03T05:55:45.244Z,79.92
2018-06-03T05:58:15.604Z,79.60
2018-06-03T06:00:47.062Z,79.65
2018-06-03T06:03:16.649Z,79.78
2018-06-03T06:05:46.813Z,79.06
2018-06-03T06:08:15.864Z,79.20
2018-06-03T06:10:46.156Z,79.85
2018-06-03T06:13:15.737Z,79.34
2018-06-03T06:15:46.324Z,80.53
2018-06-03T06:18:16.601Z,80.87
2018-06-03T06:20:45.422Z,80.47
2018-06-03T06:23:16.968Z,81.29
2018-06-03T06:25:48.762Z,81.29
2018-06-03T06:28:19.932Z,81.80
2018-06-03T06:30:50.456Z,81.34
2018-06-03T06:33:20.094Z,81.77
2018-06-03T06:35:50.562Z,81.14
2018-06-03T06:38:20.002Z,81.06
2018-06-03T06:40:49.251Z,80.87
2018-06-03T06:43:18.490Z,80.96
2018-06-03T06:45:48.923Z,80.33
2018-06-03T06:48:18.638Z,80.20
2018-06-03T06:50:49.326Z,80.57
2018-06-03T06:53:20.111Z,80.17
2018-06-03T06:55:50.291Z,79.82
2018-06-03T06:58:21.857Z,80.17
2018-06-03T07:00:53.474Z,80.01
2018-06-03T07:03:23.516Z,79.54
2018-06-03T07:05:54.877Z,79.46
2018-06-03T07:08:23.600Z,79.75
2018-06-03T07:10:53.022Z,80.25
2018-06-03T07:13:24.289Z,79.77
2018-06-03T07:15:54.183Z,80.49
2018-06-03T07:18:25.304Z,80.19
2018-06-03T07:20:55.418Z,80.47
2018-06-03T07:23:26.367Z,79.81
2018-06-03T07:25:55.976Z,79.88
2018-06-03T07:28:26.445Z,80.43
2018-06-03T07:30:55.187Z,80.08
2018-06-03T07:33:24.620Z,80.06
2018-06-03T07:35:53.885Z,79.31
2018-06-03T07:38:24.485Z,79.52
2018-06-03T07:40:54.643Z,79.64
2018-06-03T07:43:25.690Z,80.09
2018-06-03T07:45:54.373Z,80.23
2018-06-03T07:48:23.028Z,80.78
2018-06-03T07:50:52.157Z,80.88
2018-06-03T07:53:21.159Z,80.40
2018-06-03T07:55:49.873Z,80.41
2018-06-03T07:58:20.462Z,80.18
2018-06-03T08:00:49.406Z,81.13
2018-06-03T08:03:19.375Z,81.80
2018-06-03T08:05:49.519Z,81.54
2018-06-03T08:08:19.610Z,81.54
2018-06-03T08:10:49.630Z,82.00
2018-06-03T08:13:19.389Z,81.83
2018-06-03T08:15:48.063Z,82.12
2018-06-03T08:18:17.174Z,83.13
2018-06-03T08:20:46.740Z,81.75
2018-06-03T08:23:17.493Z,83.12
2018-06-03T08:25:47.332Z,84.67
2018-06-03T08:28:17.213Z,84.90
2018-06-03T08:30:45.835Z,84.06
2018-06-03T08:33:15.405Z,83.77
2018-06-03T08:35:44.382Z,84.62
2018-06-03T08:38:13.145Z,83.77
2018-06-03T08:40:42.050Z,82.53
2018-06-03T08:43:10.701Z,82.19
2018-06-03T08:45:39.353Z,82.32
2018-06-03T08:48:08.397Z,81.62
2018-06-03T08:50:38.314Z,81.94
2018-06-03T08:53:07.156Z,81.63
2018-06-03T08:55:35.982Z,82.01
2018-06-03T08:58:05.283Z,82.30
2018-06-03T09:00:34.374Z,82.43
2018-06-03T09:03:02.938Z,81.89
2018-06-03T09:05:31.853Z,82.60
2018-06-03T09:08:00.790Z,81.37
2018-06-03T09:10:29.529Z,79.39
2018-06-03T09:12:59.337Z,79.13
2018-06-03T09:15:29.567Z,78.87
2018-06-03T09:17:58.251Z,78.48
2018-06-03T09:20:27.142Z,78.05
2018-06-03T09:22:56.493Z,78.47
2018-06-03T09:25:26.641Z,78.02
2018-06-03T09:27:55.638Z,78.57
2018-06-03T09:30:25.177Z,80.05
2018-06-03T09:32:55.417Z,79.43
2018-06-03T09:35:24.487Z,79.93
2018-06-03T09:37:53.151Z,79.66
2018-06-03T09:40:21.963Z,80.33
2018-06-03T09:42:50.914Z,79.49
2018-06-03T09:45:20.748Z,79.21
2018-06-03T09:47:49.682Z,79.01
2018-06-03T09:50:18.426Z,79.17
2018-06-03T09:52:53.970Z,78.62
2018-06-03T09:55:24.745Z,78.06
2018-06-03T09:57:56.639Z,77.12
2018-06-03T10:00:33.223Z,76.82
2018-06-03T10:03:02.827Z,75.53
2018-06-03T10:05:31.450Z,75.74
2018-06-03T10:08:00.406Z,75.51
2018-06-03T10:10:31.570Z,75.21
2018-06-03T10:13:01.437Z,74.80
2018-06-03T10:15:31.015Z,74.87
2018-06-03T10:18:00.172Z,73.96
2018-06-03T10:20:29.900Z,76.01
2018-06-03T10:22:59.278Z,75.08
2018-06-03T10:25:29.330Z,74.80
2018-06-03T10:27:59.592Z,75.77
2018-06-03T10:30:30.131Z,74.95
2018-06-03T10:32:58.912Z,75.59
2018-06-03T10:35:28.273Z,75.42
2018-06-03T10:37:58.298Z,76.24
2018-06-03T10:40:29.206Z,75.73
2018-06-03T10:42:59.762Z,76.52
2018-06-03T10:45:29.578Z,75.27
2018-06-03T10:47:58.325Z,75.48
2018-06-03T10:50:28.172Z,75.24
2018-06-03T10:52:57.739Z,74.22
2018-06-03T10:55:28.298Z,72.97
2018-06-03T10:57:58.161Z,72.18
2018-06-03T11:00:28.170Z,71.53
2018-06-03T11:02:58.070Z,73.18
2018-06-03T11:05:27.034Z,73.89
2018-06-03T11:07:56.387Z,73.47
2018-06-03T11:10:26.574Z,74.00
2018-06-03T11:12:58.883Z,74.66
2018-06-03T11:15:27.664Z,74.00
2018-06-03T11:17:56.300Z,74.10
2018-06-03T11:20:25.060Z,72.37
2018-06-03T11:22:53.958Z,71.40
2018-06-03T11:25:23.678Z,70.59
2018-06-03T11:27:54.754Z,68.96
2018-06-03T11:30:23.835Z,68.80
2018-06-03T11:32:52.743Z,69.23
2018-06-03T11:35:21.457Z,70.80
2018-06-03T11:37:50.647Z,70.55
2018-06-03T11:40:19.646Z,71.59
2018-06-03T11:42:48.343Z,71.83
2018-06-03T11:45:17.095Z,71.71
2018-06-03T11:47:45.810Z,70.66
2018-06-03T11:50:14.775Z,71.23
2018-06-03T11:52:44.481Z,69.53
2018-06-03T11:55:13.538Z,69.20
2018-06-03T11:57:56.225Z,68.97
2018-06-03T12:00:24.933Z,68.86
2018-06-03T12:02:53.847Z,68.69
2018-06-03T12:05:22.502Z,69.09
2018-06-03T12:07:51.617Z,69.29
2018-06-03T12:10:21.154Z,68.87
2018-06-03T12:12:49.868Z,69.79
2018-06-03T12:15:18.608Z,68.08
2018-06-03T12:17:48.317Z,68.56
2018-06-03T12:20:17.416Z,67.27
2018-06-03T12:22:46.165Z,68.08
2018-06-03T12:25:16.189Z,69.18
2018-06-03T12:27:44.985Z,67.98
2018-06-03T12:30:13.715Z,68.64
2018-06-03T12:32:42.329Z,67.32
2018-06-03T12:35:11.017Z,67.60
2018-06-03T12:37:40.024Z,68.15
2018-06-03T12:40:08.827Z,68.49
2018-06-03T12:42:37.484Z,68.16
2018-06-03T12:45:06.165Z,68.49
2018-06-03T12:47:36.289Z,66.73
2018-06-03T12:50:05.826Z,66.30
2018-06-03T12:52:34.892Z,66.48
2018-06-03T12:55:04.529Z,66.81
2018-06-03T12:57:33.287Z,67.31
2018-06-03T13:00:01.954Z,67.32
2018-06-03T13:02:31.161Z,66.17
2018-06-03T13:04:59.855Z,63.80
2018-06-03T13:07:29.127Z,63.92
2018-06-03T13:09:57.846Z,61.47
2018-06-03T13:12:26.622Z,60.94
2018-06-03T13:14:55.272Z,61.18
2018-06-03T13:17:24.010Z,60.05
2018-06-03T13:19:53.926Z,58.01
2018-06-03T13:22:22.655Z,59.63
2018-06-03T13:24:51.532Z,57.50
2018-06-03T13:27:20.246Z,57.33
2018-06-03T13:29:49.767Z,56.29
2018-06-03T13:32:18.577Z,56.36
2018-06-03T13:34:47.325Z,54.63
2018-06-03T13:37:16.338Z,53.50
2018-06-03T13:39:46.011Z,49.22
2018-06-03T13:42:14.840Z,41.79
2018-06-03T13:44:43.775Z,34.97
2018-06-03T13:47:12.550Z,36.13
2018-06-03T13:49:41.615Z,33.53
2018-06-03T13:52:10.258Z,30.63
2018-06-03T13:54:39.428Z,29.25
2018-06-03T13:57:08.756Z,27.08
2018-06-03T13:59:37.561Z,26.36
2018-06-03T14:02:06.267Z,27.59
2018-06-03T14:04:35.015Z,28.80
2018-06-03T14:07:04.036Z,30.89
2018-06-03T14:09:33.081Z,32.19
2018-06-03T14:12:01.871Z,33.58
2018-06-03T14:14:30.756Z,33.46
2018-06-03T14:16:59.696Z,34.18
2018-06-03T14:19:28.669Z,35.23
2018-06-03T14:21:57.772Z,36.78
2018-06-03T14:24:27.109Z,37.94
2018-06-03T14:26:55.948Z,38.91
2018-06-03T14:29:25.000Z,38.42
2018-06-03T14:31:53.760Z,39.69
2018-06-03T14:34:22.749Z,41.34
2018-06-03T14:36:51.771Z,41.07
2018-06-03T14:39:20.583Z,42.78
2018-06-03T14:41:50.708Z,43.23
2018-06-03T14:44:19.778Z,45.03
2018-06-03T14:46:48.663Z,45.56
2018-06-03T14:49:17.406Z,45.79
2018-06-03T14:51:46.829Z,47.71
2018-06-03T14:54:15.611Z,46.52
2018-06-03T14:56:44.315Z,46.75
2018-06-03T14:59:13.072Z,47.29
2018-06-03T15:01:41.788Z,48.54
2018-06-03T15:04:10.956Z,47.52
2018-06-03T15:06:39.838Z,48.46
2018-06-03T15:09:08.871Z,48.93
2018-06-03T15:11:37.774Z,48.82
2018-06-03T15:14:06.887Z,50.79
2018-06-03T15:16:35.652Z,50.13
2018-06-03T15:19:04.475Z,50.04
2018-06-03T15:21:33.127Z,49.84
2018-06-03T15:24:01.929Z,51.05
2018-06-03T15:26:30.831Z,51.75
2018-06-03T15:28:59.885Z,51.02
2018-06-03T15:31:29.202Z,50.07
2018-06-03T15:33:58.500Z,51.75
2018-06-03T15:36:27.120Z,50.45
2018-06-03T15:38:56.289Z,51.18
2018-06-03T15:41:25.359Z,50.94
2018-06-03T15:43:54.227Z,52.02
2018-06-03T15:46:22.920Z,52.47
2018-06-03T15:48:52.323Z,50.86
2018-06-03T15:51:21.189Z,51.52
2018-06-03T15:53:50.065Z,50.84
2018-06-03T15:56:18.985Z,51.72
2018-06-03T15:58:51.128Z,52.92
2018-06-03T16:01:20.891Z,51.54
2018-06-03T16:03:50.682Z,51.25
2018-06-03T16:06:19.751Z,51.40
2018-06-03T16:08:48.917Z,52.58
2018-06-03T16:11:18.188Z,53.10
2018-06-03T16:13:47.322Z,52.47
2018-06-03T16:16:16.287Z,53.33
2018-06-03T16:18:45.193Z,53.89
2018-06-03T16:21:14.315Z,53.19
2018-06-03T16:23:43.250Z,54.00
2018-06-03T16:26:12.587Z,53.22
2018-06-03T16:28:41.453Z,55.04
2018-06-03T16:31:10.149Z,54.86
2018-06-03T16:33:38.802Z,55.24
2018-06-03T16:36:07.789Z,55.51
2018-06-03T16:38:36.606Z,56.01
2018-06-03T16:41:05.333Z,56.02
2018-06-03T16:43:34.247Z,55.04
2018-06-03T16:46:03.052Z,55.56
2018-06-03T16:48:32.434Z,56.27
2018-06-03T16:51:02.228Z,56.04
2018-06-03T16:53:31.764Z,55.70
2018-06-03T16:56:00.864Z,55.67
2018-06-03T16:58:30.171Z,55.57
2018-06-03T17:00:59.478Z,55.80
2018-06-03T17:03:28.147Z,57.41
2018-06-03T17:05:57.255Z,56.52
2018-06-03T17:08:26.155Z,56.53
2018-06-03T17:10:55.274Z,57.38
2018-06-03T17:13:24.048Z,57.20
2018-06-03T17:15:53.092Z,57.46
2018-06-03T17:18:21.880Z,56.73
2018-06-03T17:20:50.639Z,57.29
2018-06-03T17:23:25.808Z,56.25
2018-06-03T17:25:54.801Z,56.74
2018-06-03T17:28:24.030Z,56.79
2018-06-03T17:30:54.810Z,56.89
2018-06-03T17:33:23.788Z,56.96
2018-06-03T17:35:52.750Z,57.08
2018-06-03T17:38:21.577Z,57.54
2018-06-03T17:40:50.201Z,58.45
2018-06-03T17:43:19.056Z,58.05
2018-06-03T17:45:47.854Z,58.62
2018-06-03T17:48:16.704Z,58.12
2018-06-03T17:50:45.950Z,58.54
2018-06-03T17:53:15.300Z,57.82
2018-06-03T17:55:44.252Z,58.51
2018-06-03T17:58:12.983Z,58.76
2018-06-03T18:00:42.130Z,59.02
2018-06-03T18:03:10.947Z,59.26
2018-06-03T18:05:40.336Z,59.36
2018-06-03T18:08:09.559Z,59.48
2018-06-03T18:10:38.439Z,59.63
2018-06-03T18:13:07.756Z,59.91
2018-06-03T18:15:36.530Z,60.62
2018-06-03T18:18:05.262Z,59.92
2018-06-03T18:20:34.012Z,60.26
2018-06-03T18:23:02.883Z,60.16
2018-06-03T18:25:31.918Z,60.62
2018-06-03T18:28:01.265Z,61.21
2018-06-03T18:30:30.191Z,60.58
2018-06-03T18:32:59.303Z,60.83
2018-06-03T18:35:28.291Z,61.29
2018-06-03T18:37:58.603Z,61.82
2018-06-03T18:40:27.335Z,61.55
2018-06-03T18:42:56.074Z,61.95
2018-06-03T18:45:24.951Z,62.04
2018-06-03T18:47:53.625Z,62.16
2018-06-03T18:50:22.513Z,61.53
2018-06-03T18:52:51.457Z,61.45
2018-06-03T18:55:20.270Z,61.49
2018-06-03T18:57:48.966Z,61.56
2018-06-03T19:00:17.907Z,62.49
2018-06-03T19:02:47.031Z,62.38
2018-06-03T19:05:15.897Z,62.47
2018-06-03T19:07:44.646Z,62.79
2018-06-03T19:10:13.483Z,62.27
2018-06-03T19:12:42.291Z,62.30
2018-06-03T19:15:11.070Z,62.52
2018-06-03T19:17:39.931Z,62.61
2018-06-03T19:20:08.791Z,62.72
2018-06-03T19:22:37.540Z,62.72
2018-06-03T19:25:06.336Z,63.32
2018-06-03T19:27:35.679Z,63.06
2018-06-03T19:30:04.717Z,63.00
2018-06-03T19:32:33.603Z,62.80
2018-06-03T19:35:02.689Z,63.40
2018-06-03T19:37:31.847Z,62.93
2018-06-03T19:40:00.960Z,63.63
2018-06-03T19:42:29.665Z,63.78
2018-06-03T19:44:58.979Z,63.45
2018-06-03T19:47:28.518Z,63.62
2018-06-03T19:49:57.917Z,63.32
2018-06-03T19:52:28.669Z,63.75
2018-06-03T19:54:58.334Z,64.15
2018-06-03T19:57:27.147Z,64.36
2018-06-03T19:59:56.220Z,64.33
2018-06-03T20:02:25.461Z,64.24
2018-06-03T20:04:54.711Z,63.95
2018-06-03T20:07:24.080Z,64.40
2018-06-03T20:09:53.883Z,65.23
2018-06-03T20:12:24.992Z,65.54
2018-06-03T20:14:54.186Z,66.27
2018-06-03T20:17:24.380Z,66.39
2018-06-03T20:19:53.181Z,66.62
2018-06-03T20:22:23.495Z,66.10
2018-06-03T20:24:52.153Z,66.26
2018-06-03T20:27:21.282Z,67.47
2018-06-03T20:29:50.059Z,68.00
2018-06-03T20:32:19.330Z,68.30
2018-06-03T20:34:48.478Z,68.48
2018-06-03T20:37:17.454Z,67.86
2018-06-03T20:39:46.360Z,68.40
2018-06-03T20:42:15.279Z,68.52
2018-06-03T20:44:44.170Z,68.95
2018-06-03T20:47:13.227Z,68.73
2018-06-03T20:49:42.256Z,68.95
2018-06-03T20:52:11.071Z,69.40
2018-06-03T20:54:42.463Z,69.70
2018-06-03T20:57:11.517Z,70.21
2018-06-03T20:59:40.447Z,69.95
2018-06-03T21:02:09.269Z,69.85
2018-06-03T21:04:38.327Z,70.04
2018-06-03T21:07:07.470Z,70.10
2018-06-03T21:09:36.909Z,70.56
2018-06-03T21:12:06.466Z,70.08
2018-06-03T21:14:35.188Z,70.55
2018-06-03T21:17:04.215Z,70.12
2018-06-03T21:19:32.903Z,71.02
2018-06-03T21:22:01.539Z,70.48
2018-06-03T21:24:30.417Z,71.26
2018-06-03T21:26:59.671Z,71.03
2018-06-03T21:29:28.887Z,70.97
2018-06-03T21:31:57.660Z,71.00
2018-06-03T21:34:26.322Z,71.55
2018-06-03T21:36:55.753Z,70.98
2018-06-03T21:39:24.377Z,71.42
2018-06-03T21:41:53.050Z,71.21
2018-06-03T21:44:21.817Z,71.66
2018-06-03T21:46:50.498Z,71.18
2018-06-03T21:49:19.201Z,71.46
2018-06-03T21:51:48.109Z,71.34
2018-06-03T21:54:17.043Z,71.44
2018-06-03T21:56:46.326Z,71.26
2018-06-03T21:59:14.950Z,72.09
2018-06-03T22:01:43.738Z,71.88
2018-06-03T22:04:12.666Z,71.97
2018-06-03T22:06:41.315Z,72.72
2018-06-03T22:09:10.175Z,72.87
2018-06-03T22:11:38.907Z,72.36
2018-06-03T22:14:07.958Z,72.96
2018-06-03T22:16:36.809Z,72.74
2018-06-03T22:19:05.713Z,72.73
2018-06-03T22:21:34.696Z,73.39
2018-06-03T22:24:03.656Z,73.05
2018-06-03T22:26:32.651Z,73.15
2018-06-03T22:29:01.768Z,73.89
2018-06-03T22:31:30.455Z,73.81
2018-06-03T22:33:59.141Z,73.45
2018-06-03T22:36:28.212Z,73.71
2018-06-03T22:38:57.263Z,73.63
2018-06-03T22:41:26.829Z,73.64
2018-06-03T22:43:56.077Z,73.23
2018-06-03T22:46:24.768Z,73.68
2018-06-03T22:48:53.841Z,73.69
2018-06-03T22:51:22.583Z,73.18
2018-06-03T22:53:51.880Z,73.10
2018-06-03T22:56:20.930Z,73.77
2018-06-03T22:58:49.855Z,73.43
2018-06-03T23:01:18.548Z,73.87
2018-06-03T23:03:47.338Z,73.59
2018-06-03T23:06:16.030Z,73.92
2018-06-03T23:08:44.728Z,74.50
2018-06-03T23:11:13.915Z,74.47
2018-06-03T23:13:42.629Z,73.77
2018-06-03T23:16:11.314Z,73.86
2018-06-03T23:18:39.927Z,73.88
2018-06-03T23:21:08.966Z,74.49
2018-06-03T23:23:37.888Z,73.95
2018-06-03T23:26:06.599Z,73.98
2018-06-03T23:28:35.261Z,74.63
2018-06-03T23:31:04.384Z,74.26
2018-06-03T23:33:33.349Z,74.60
2018-06-03T23:36:02.900Z,74.57
2018-06-03T23:38:32.576Z,74.48
2018-06-03T23:41:01.637Z,74.69
2018-06-03T23:43:30.241Z,74.74
2018-06-03T23:45:58.953Z,74.52
2018-06-03T23:48:27.923Z,74.81
2018-06-03T23:50:56.507Z,74.34
2018-06-03T23:53:25.149Z,74.94
2018-06-03T23:55:54.090Z,74.27
2018-06-03T23:58:23.594Z,74.38
